Time;durP1;ratioP1;P1;durP2;ratioP2;P2;SDS_P1;SDS_P2;PMS_P1;PMS_P2;Temp;Humidity;BMP_temperature;BMP_pressure;BME280_temperature;BME280_humidity;BME280_pressure;Samples;Min_cycle;Max_cycle;Signal;HPM_P1;HPM_P2
2024/03/30 00:02:00;;;;;;;5.72;3.47;;;11.20;99.90;;;;;;4983912;28;20132;-80
2024/03/30 00:04:28;;;;;;;5.20;3.80;;;11.20;99.90;;;;;;5000215;28;20615;-79
2024/03/30 00:06:54;;;;;;;5.55;3.50;;;11.20;99.90;;;;;;4972254;28;20045;-80
2024/03/30 00:09:22;;;;;;;6.30;3.78;;;11.20;99.90;;;;;;4969171;28;20074;-80
2024/03/30 00:11:51;;;;;;;5.00;3.42;;;11.20;99.90;;;;;;4968929;28;20082;-79
2024/03/30 00:14:17;;;;;;;3.55;3.00;;;11.30;99.90;;;;;;4984593;28;20053;-80
2024/03/30 00:16:43;;;;;;;5.65;2.85;;;11.30;99.90;;;;;;4984849;28;20049;-80
2024/03/30 00:19:09;;;;;;;3.80;2.90;;;11.30;99.90;;;;;;4967068;28;20045;-79
2024/03/30 00:21:38;;;;;;;4.90;3.25;;;11.30;99.90;;;;;;5002712;28;20501;-79
2024/03/30 00:24:04;;;;;;;3.63;3.13;;;11.20;99.90;;;;;;4970235;28;20156;-80
2024/03/30 00:26:29;;;;;;;4.43;3.13;;;11.20;99.90;;;;;;4970298;28;20545;-79
2024/03/30 00:28:55;;;;;;;3.50;2.90;;;11.20;99.90;;;;;;4971810;28;20495;-79
2024/03/30 00:31:25;;;;;;;3.72;3.00;;;11.20;99.90;;;;;;4971240;28;20517;-80
2024/03/30 00:33:50;;;;;;;3.38;2.88;;;11.20;99.90;;;;;;4981954;28;20153;-80
2024/03/30 00:36:16;;;;;;;5.78;3.28;;;11.10;99.90;;;;;;4984646;28;20073;-79
2024/03/30 00:38:45;;;;;;;4.30;2.53;;;11.20;99.90;;;;;;4970034;28;20063;-79
2024/03/30 00:41:12;;;;;;;4.43;3.20;;;11.10;99.90;;;;;;4968285;28;20069;-81
2024/03/30 00:43:38;;;;;;;4.35;2.90;;;11.10;99.90;;;;;;4968821;28;20588;-81
2024/03/30 00:46:04;;;;;;;3.60;2.60;;;11.10;99.90;;;;;;4970190;28;20081;-81
2024/03/30 00:48:30;;;;;;;4.32;2.75;;;11.10;99.90;;;;;;4983923;28;20061;-81
2024/03/30 00:50:55;;;;;;;3.33;2.40;;;11.10;99.90;;;;;;4965577;28;20046;-81
2024/03/30 00:53:21;;;;;;;3.65;2.42;;;11.10;99.90;;;;;;4966472;28;20050;-81
2024/03/30 00:55:59;;;;;;;6.13;2.70;;;11.00;99.90;;;;;;4967938;28;20056;-81
2024/03/30 00:58:25;;;;;;;3.88;2.50;;;11.00;99.90;;;;;;4985067;28;20046;-82
2024/03/30 01:00:52;;;;;;;3.70;2.75;;;11.10;99.90;;;;;;4981324;28;20038;-81
2024/03/30 01:03:17;;;;;;;4.68;2.20;;;11.00;99.90;;;;;;4967711;28;20380;-81
2024/03/30 01:05:43;;;;;;;3.72;2.20;;;10.90;99.90;;;;;;4970862;28;20057;-82
2024/03/30 01:08:09;;;;;;;3.70;2.10;;;11.00;99.90;;;;;;4983914;28;20049;-81
2024/03/30 01:10:35;;;;;;;4.03;1.88;;;10.90;99.90;;;;;;4970521;28;20033;-82
2024/03/30 01:13:01;;;;;;;6.63;2.22;;;10.90;99.90;;;;;;4966178;28;20398;-82
2024/03/30 01:15:30;;;;;;;4.13;2.30;;;10.90;99.90;;;;;;4965923;28;20046;-82
2024/03/30 01:17:57;;;;;;;3.33;2.20;;;10.90;99.90;;;;;;4969118;28;20049;-82
2024/03/30 01:20:23;;;;;;;3.30;2.00;;;11.00;99.90;;;;;;4983597;28;20053;-82
2024/03/30 01:22:49;;;;;;;3.90;2.28;;;11.00;99.90;;;;;;4961103;28;20466;-81
2024/03/30 01:25:16;;;;;;;4.78;1.80;;;11.00;99.90;;;;;;4976839;28;20092;-82
2024/03/30 01:27:42;;;;;;;2.88;1.83;;;11.00;99.90;;;;;;4998725;28;20042;-82
2024/03/30 01:30:15;;;;;;;2.92;2.17;;;11.00;99.90;;;;;;4969624;28;20057;-82
2024/03/30 01:32:41;;;;;;;3.83;1.85;;;11.00;99.90;;;;;;4986483;28;20049;-82
2024/03/30 01:35:12;;;;;;;2.85;1.88;;;11.00;99.90;;;;;;4990316;28;20042;-82
2024/03/30 01:37:40;;;;;;;;;;;10.90;99.90;;;;;;4989879;28;20192;-82
2024/03/30 01:40:06;;;;;;;3.10;1.88;;;10.90;99.90;;;;;;4972586;28;20016;-82
2024/03/30 01:42:32;;;;;;;3.30;1.90;;;10.90;99.90;;;;;;4986848;28;20045;-82
2024/03/30 01:44:58;;;;;;;2.80;1.60;;;10.90;99.90;;;;;;4984228;28;20058;-82
2024/03/30 01:47:27;;;;;;;2.47;1.50;;;10.90;99.90;;;;;;4988950;28;20045;-82
2024/03/30 01:49:56;;;;;;;3.63;1.95;;;10.90;99.90;;;;;;4982555;28;20058;-82
2024/03/30 01:52:24;;;;;;;3.53;1.92;;;10.90;99.90;;;;;;4993493;28;20054;-82
2024/03/30 01:54:50;;;;;;;3.35;2.00;;;10.90;99.90;;;;;;5020380;28;20111;-82
2024/03/30 01:57:17;;;;;;;2.97;1.77;;;10.90;99.90;;;;;;4964808;28;20053;-82
2024/03/30 01:59:43;;;;;;;4.47;1.45;;;10.80;99.90;;;;;;4965031;28;20034;-83
2024/03/30 02:02:10;;;;;;;3.28;1.90;;;10.80;99.90;;;;;;4990085;28;20041;-82
2024/03/30 02:04:38;;;;;;;2.30;1.52;;;10.80;99.90;;;;;;4973459;28;20053;-82
2024/03/30 02:07:04;;;;;;;2.33;1.50;;;10.80;99.90;;;;;;4986732;28;20774;-82
2024/03/30 02:09:31;;;;;;;3.55;1.90;;;10.70;99.90;;;;;;4985991;28;20052;-82
2024/03/30 02:11:58;;;;;;;2.58;1.60;;;10.70;99.90;;;;;;4972019;28;20042;-82
2024/03/30 02:14:23;;;;;;;2.97;1.77;;;10.70;99.90;;;;;;4972821;28;20054;-82
2024/03/30 02:16:49;;;;;;;3.17;1.83;;;10.60;99.90;;;;;;4986474;28;20384;-83
2024/03/30 02:19:18;;;;;;;3.28;1.50;;;10.50;99.90;;;;;;4986354;28;20050;-82
2024/03/30 02:21:44;;;;;;;2.90;1.75;;;10.50;99.90;;;;;;4984805;28;20045;-82
2024/03/30 02:24:10;;;;;;;2.05;1.33;;;10.40;99.90;;;;;;4967560;28;20050;-82
2024/03/30 02:26:36;;;;;;;3.30;1.58;;;10.30;99.90;;;;;;4966826;28;20529;-82
2024/03/30 02:29:05;;;;;;;2.13;1.90;;;10.20;99.90;;;;;;5018862;28;20050;-82
2024/03/30 02:31:32;;;;;;;3.65;2.13;;;10.20;99.90;;;;;;4970928;28;20072;-83
2024/03/30 02:33:59;;;;;;;3.25;2.00;;;10.10;99.90;;;;;;4967627;28;20511;-82
2024/03/30 02:36:26;;;;;;;4.70;2.20;;;10.10;99.90;;;;;;4969641;28;20038;-83
2024/03/30 02:38:53;;;;;;;2.38;1.92;;;10.10;99.90;;;;;;4971926;28;20046;-83
2024/03/30 02:41:19;;;;;;;3.28;2.10;;;10.10;99.90;;;;;;4974303;28;20065;-82
2024/03/30 02:43:44;;;;;;;4.10;2.20;;;10.10;99.90;;;;;;4971330;28;20041;-82
2024/03/30 02:46:13;;;;;;;3.47;1.95;;;10.00;99.90;;;;;;4987619;28;20057;-83
2024/03/30 02:48:39;;;;;;;5.00;2.72;;;10.00;99.90;;;;;;5024052;28;20034;-83
2024/03/30 02:51:05;;;;;;;3.38;2.15;;;10.00;99.90;;;;;;4982203;28;20049;-83
2024/03/30 02:53:31;;;;;;;3.40;1.88;;;9.90;99.90;;;;;;4988147;28;20042;-83
2024/03/30 02:55:57;;;;;;;4.30;2.25;;;9.90;99.90;;;;;;4969594;28;20069;-82
2024/03/30 02:58:23;;;;;;;4.40;2.38;;;9.90;99.90;;;;;;4971938;28;20073;-83
2024/03/30 03:00:48;;;;;;;3.55;2.30;;;10.00;99.90;;;;;;4970652;28;20046;-82
2024/03/30 03:03:17;;;;;;;4.38;2.92;;;10.00;99.90;;;;;;4985370;28;20098;-82
2024/03/30 03:05:43;;;;;;;3.92;2.45;;;10.00;99.90;;;;;;4971552;28;20061;-82
2024/03/30 03:08:09;;;;;;;4.03;2.70;;;10.00;99.90;;;;;;4972748;28;20046;-82
2024/03/30 03:10:35;;;;;;;5.88;2.70;;;10.00;99.90;;;;;;5019874;28;20038;-82
2024/03/30 03:13:03;;;;;;;3.90;2.78;;;10.00;99.90;;;;;;4987320;28;20038;-82
2024/03/30 03:15:29;;;;;;;4.78;2.88;;;10.00;99.90;;;;;;4981487;28;20072;-82
2024/03/30 03:17:56;;;;;;;3.58;2.80;;;10.00;99.90;;;;;;4983261;28;20132;-83
2024/03/30 03:20:24;;;;;;;4.25;2.95;;;10.00;99.90;;;;;;4977965;28;20758;-82
2024/03/30 03:22:50;;;;;;;4.38;3.33;;;10.00;99.90;;;;;;5015384;28;20058;-82
2024/03/30 03:25:16;;;;;;;5.25;3.30;;;10.00;99.90;;;;;;4971663;28;20045;-83
2024/03/30 03:27:41;;;;;;;4.63;3.38;;;10.00;99.90;;;;;;4986953;28;20091;-82
2024/03/30 03:30:08;;;;;;;6.35;3.22;;;10.00;99.90;;;;;;4968986;28;20051;-82
2024/03/30 03:32:34;;;;;;;4.43;3.15;;;10.00;99.90;;;;;;5014094;28;20077;-82
2024/03/30 03:34:59;;;;;;;5.40;4.15;;;10.00;99.90;;;;;;4968834;28;20084;-82
2024/03/30 03:37:25;;;;;;;5.82;3.55;;;10.00;99.90;;;;;;4970064;28;20510;-82
2024/03/30 03:39:51;;;;;;;5.53;3.55;;;10.00;99.90;;;;;;4984980;28;20057;-83
2024/03/30 03:42:17;;;;;;;4.15;3.30;;;10.00;99.90;;;;;;4985572;28;20042;-82
2024/03/30 03:44:42;;;;;;;4.28;3.72;;;10.00;99.90;;;;;;4971576;28;20183;-82
2024/03/30 03:47:08;;;;;;;4.72;3.83;;;10.00;99.90;;;;;;4985561;28;20480;-83
2024/03/30 03:49:34;;;;;;;5.30;4.05;;;10.00;99.90;;;;;;4986253;28;20042;-82
2024/03/30 03:52:00;;;;;;;4.45;3.72;;;10.00;99.90;;;;;;4982427;28;20049;-83
2024/03/30 03:54:26;;;;;;;7.28;4.20;;;10.00;99.90;;;;;;4968839;28;20051;-84
2024/03/30 03:56:52;;;;;;;6.00;4.68;;;10.00;99.90;;;;;;4967823;28;20050;-84
2024/03/30 03:59:17;;;;;;;5.65;5.05;;;10.00;99.90;;;;;;4962741;28;20518;-84
2024/03/30 04:01:43;;;;;;;5.82;5.25;;;10.00;99.90;;;;;;4968943;28;20042;-84
2024/03/30 04:04:09;;;;;;;5.85;5.10;;;10.00;99.90;;;;;;5019149;28;20050;-84
2024/03/30 04:06:35;;;;;;;5.78;5.18;;;10.00;99.90;;;;;;4984940;28;20057;-84
2024/03/30 04:09:03;;;;;;;7.40;5.45;;;10.00;99.90;;;;;;4969333;28;20128;-85
2024/03/30 04:11:29;;;;;;;5.28;4.70;;;9.90;99.90;;;;;;4968827;28;20038;-83
2024/03/30 04:13:57;;;;;;;6.70;5.90;;;9.90;99.90;;;;;;5017499;28;20521;-84
2024/03/30 04:16:23;;;;;;;6.22;5.63;;;9.90;99.90;;;;;;4970205;28;20414;-83
2024/03/30 04:18:49;;;;;;;7.80;6.20;;;9.90;99.90;;;;;;4970193;28;20045;-83
2024/03/30 04:21:15;;;;;;;9.05;6.32;;;9.90;99.90;;;;;;4968282;28;20041;-83
2024/03/30 04:23:42;;;;;;;7.32;6.57;;;9.80;99.90;;;;;;4970395;28;20502;-82
2024/03/30 04:26:14;;;;;;;8.70;6.75;;;9.80;99.90;;;;;;4966601;28;20103;-82
2024/03/30 04:28:40;;;;;;;9.07;6.72;;;9.80;99.90;;;;;;4981905;28;20755;-83
2024/03/30 04:31:10;;;;;;;7.88;7.07;;;9.80;99.90;;;;;;4969652;28;20390;-83
2024/03/30 04:33:36;;;;;;;8.13;7.32;;;9.80;99.90;;;;;;5013440;28;20409;-83
2024/03/30 04:36:03;;;;;;;7.60;6.90;;;9.80;99.90;;;;;;5000217;28;20042;-82
2024/03/30 04:38:30;;;;;;;8.27;7.30;;;9.70;99.90;;;;;;5015972;28;20092;-82
2024/03/30 04:41:05;;;;;;;7.97;7.18;;;9.70;99.90;;;;;;4987364;28;20037;-82
2024/03/30 04:43:33;;;;;;;8.32;7.53;;;9.70;99.90;;;;;;4984579;28;20038;-82
2024/03/30 04:46:00;;;;;;;9.00;8.10;;;9.70;99.90;;;;;;4968919;28;20046;-83
2024/03/30 04:48:27;;;;;;;9.68;8.77;;;9.70;99.90;;;;;;4984952;28;20501;-82
2024/03/30 04:50:54;;;;;;;9.43;8.18;;;9.70;99.90;;;;;;4985241;28;20466;-83
2024/03/30 04:53:22;;;;;;;10.48;9.40;;;9.70;99.90;;;;;;4970974;28;20648;-82
2024/03/30 04:55:55;;;;;;;10.00;9.10;;;9.70;99.90;;;;;;4970683;28;20089;-82
2024/03/30 04:58:24;;;;;;;10.88;9.77;;;9.70;99.90;;;;;;4983058;28;20516;-83
2024/03/30 05:00:51;;;;;;;11.15;10.10;;;9.60;99.90;;;;;;4996426;28;20107;-82
2024/03/30 05:03:17;;;;;;;11.80;10.70;;;9.70;99.90;;;;;;4974428;28;20058;-82
2024/03/30 05:05:44;;;;;;;12.15;10.85;;;9.60;99.90;;;;;;5001818;28;20046;-82
2024/03/30 05:08:11;;;;;;;11.65;10.52;;;9.60;99.90;;;;;;4957775;28;20601;-82
2024/03/30 05:10:38;;;;;;;12.43;11.15;;;9.60;99.90;;;;;;5019295;28;20621;-81
2024/03/30 05:13:05;;;;;;;13.45;12.15;;;9.60;99.90;;;;;;5022453;28;20057;-81
2024/03/30 05:15:36;;;;;;;13.55;12.35;;;9.70;99.90;;;;;;5007236;28;20134;-82
2024/03/30 05:18:06;;;;;;;14.30;12.90;;;9.60;99.90;;;;;;4975753;28;20668;-83
2024/03/30 05:20:50;;;;;;;14.68;13.38;;;9.60;99.90;;;;;;4972594;28;20133;-82
2024/03/30 05:23:21;;;;;;;14.95;13.52;;;9.60;99.90;;;;;;4967052;28;20418;-82
2024/03/30 05:25:49;;;;;;;16.40;14.88;;;9.50;99.90;;;;;;4979319;28;20046;-82
2024/03/30 05:28:16;;;;;;;16.50;14.98;;;9.60;99.90;;;;;;4967626;28;20085;-82
2024/03/30 05:30:43;;;;;;;15.90;14.40;;;9.60;99.90;;;;;;4993614;28;20446;-81
2024/03/30 05:33:10;;;;;;;17.23;15.63;;;9.60;99.90;;;;;;4975320;28;20510;-81
2024/03/30 05:35:36;;;;;;;17.67;16.08;;;9.70;99.90;;;;;;4975459;28;20046;-82
2024/03/30 05:38:03;;;;;;;16.23;14.73;;;9.60;99.90;;;;;;4971113;28;20064;-82
2024/03/30 05:40:34;;;;;;;17.23;15.73;;;9.60;99.90;;;;;;4967619;28;20046;-82
2024/03/30 05:43:04;;;;;;;19.33;17.33;;;9.60;99.90;;;;;;4968033;28;20133;-82
2024/03/30 05:45:34;;;;;;;18.23;16.63;;;9.60;99.90;;;;;;5004975;28;20080;-81
2024/03/30 05:48:00;;;;;;;18.27;16.65;;;9.60;99.90;;;;;;4983406;28;20519;-82
2024/03/30 05:50:27;;;;;;;17.85;16.15;;;9.60;99.90;;;;;;4975013;28;20534;-81
2024/03/30 05:52:53;;;;;;;21.15;19.02;;;9.60;99.90;;;;;;4984567;28;20096;-82
2024/03/30 05:55:19;;;;;;;19.10;17.27;;;9.60;99.90;;;;;;4970785;28;20077;-81
2024/03/30 05:57:46;;;;;;;20.40;18.52;;;9.60;99.90;;;;;;4959557;28;20042;-82
2024/03/30 06:00:13;;;;;;;21.17;19.02;;;9.60;99.90;;;;;;4974822;28;20602;-84
2024/03/30 06:02:40;;;;;;;20.05;18.25;;;9.60;99.90;;;;;;5016189;28;20522;-83
2024/03/30 06:05:06;;;;;;;21.27;19.10;;;9.70;99.90;;;;;;5007236;28;20055;-83
2024/03/30 06:07:32;;;;;;;20.40;18.50;;;9.60;99.90;;;;;;4971782;28;20053;-83
2024/03/30 06:09:58;;;;;;;21.35;19.35;;;9.60;99.90;;;;;;4985314;28;20080;-83
2024/03/30 06:12:28;;;;;;;22.30;20.30;;;9.60;99.90;;;;;;4960101;28;20058;-83
2024/03/30 06:14:54;;;;;;;23.35;21.02;;;9.60;99.90;;;;;;4996763;28;20054;-83
2024/03/30 06:17:20;;;;;;;20.77;18.77;;;9.60;99.90;;;;;;4959000;28;20568;-83
2024/03/30 06:19:46;;;;;;;22.10;20.10;;;9.50;99.90;;;;;;4978267;28;20484;-83
2024/03/30 06:22:11;;;;;;;22.98;20.92;;;9.50;99.90;;;;;;4964284;28;20100;-82
2024/03/30 06:24:40;;;;;;;23.63;21.50;;;9.50;99.90;;;;;;4977209;28;20047;-82
2024/03/30 06:27:06;;;;;;;23.00;20.90;;;9.50;99.90;;;;;;5011857;28;20050;-82
2024/03/30 06:29:36;;;;;;;23.63;21.42;;;9.50;99.90;;;;;;4987310;28;20372;-82
2024/03/30 06:32:03;;;;;;;23.80;21.63;;;9.50;99.90;;;;;;4959844;28;20595;-82
2024/03/30 06:34:30;;;;;;;24.35;22.02;;;9.50;99.90;;;;;;4973110;28;20053;-82
2024/03/30 06:36:56;;;;;;;25.33;22.92;;;9.50;99.90;;;;;;4964881;28;20402;-82
2024/03/30 06:39:22;;;;;;;24.55;22.25;;;9.50;99.90;;;;;;5011348;28;20046;-82
2024/03/30 06:44:41;;;;;;;23.38;20.95;;;9.50;99.90;;;;;;5015395;28;20449;-82
2024/03/30 06:47:07;;;;;;;26.40;23.92;;;9.50;99.90;;;;;;4971868;28;20053;-82
2024/03/30 06:49:34;;;;;;;24.77;22.38;;;9.60;99.90;;;;;;4966479;28;20053;-82
2024/03/30 06:52:00;;;;;;;26.23;23.52;;;9.60;99.90;;;;;;4978274;28;20542;-82
2024/03/30 06:54:26;;;;;;;26.08;23.58;;;9.60;99.90;;;;;;4975481;28;20058;-81
2024/03/30 06:56:51;;;;;;;27.38;24.63;;;9.60;99.90;;;;;;4969047;28;20506;-82
2024/03/30 06:59:17;;;;;;;25.55;23.10;;;9.60;99.90;;;;;;4957641;28;20076;-82
2024/03/30 07:01:43;;;;;;;27.23;24.45;;;9.60;99.90;;;;;;4975243;28;20054;-81
2024/03/30 07:04:09;;;;;;;27.08;24.27;;;9.60;99.90;;;;;;4981374;28;20491;-81
2024/03/30 07:06:34;;;;;;;27.63;24.90;;;9.70;99.90;;;;;;4968622;28;20162;-82
2024/03/30 07:09:00;;;;;;;25.60;23.13;;;9.70;99.90;;;;;;4986582;28;20038;-81
2024/03/30 07:11:27;;;;;;;25.55;23.10;;;9.70;99.90;;;;;;4967324;28;20049;-82
2024/03/30 07:13:56;;;;;;;26.92;24.33;;;9.80;99.90;;;;;;4983749;28;20050;-81
2024/03/30 07:16:22;;;;;;;25.02;22.52;;;9.80;99.90;;;;;;4987653;28;20042;-80
2024/03/30 07:18:49;;;;;;;26.13;23.73;;;9.90;99.90;;;;;;4971000;28;20042;-82
2024/03/30 07:21:16;;;;;;;25.08;22.70;;;9.90;99.90;;;;;;4971772;28;20054;-81
2024/03/30 07:23:42;;;;;;;25.08;22.75;;;9.90;99.90;;;;;;4971694;28;20103;-82
2024/03/30 07:26:08;;;;;;;22.58;20.52;;;9.90;99.90;;;;;;4985437;28;20376;-81
2024/03/30 07:28:34;;;;;;;21.40;19.30;;;10.00;99.90;;;;;;5018874;28;20053;-81
2024/03/30 07:31:06;;;;;;;19.15;17.40;;;10.00;99.90;;;;;;4963658;28;20042;-80
2024/03/30 07:33:33;;;;;;;16.98;15.27;;;10.10;99.90;;;;;;4965374;28;20057;-81
2024/03/30 07:35:59;;;;;;;16.00;14.32;;;10.10;99.90;;;;;;4976669;28;20058;-80
2024/03/30 07:38:32;;;;;;;16.65;15.05;;;10.20;99.90;;;;;;4976686;28;20049;-81
2024/03/30 07:40:58;;;;;;;15.52;14.02;;;10.20;99.90;;;;;;4972951;28;20108;-81
2024/03/30 07:43:24;;;;;;;14.85;13.52;;;10.30;99.90;;;;;;4963818;28;20112;-81
2024/03/30 07:45:51;;;;;;;14.98;13.50;;;10.30;99.90;;;;;;5006115;28;20641;-80
2024/03/30 07:48:17;;;;;;;16.33;14.25;;;10.40;99.90;;;;;;5002646;28;20053;-81
2024/03/30 07:50:43;;;;;;;14.68;13.20;;;10.40;99.90;;;;;;4967028;28;20042;-79
2024/03/30 07:53:08;;;;;;;14.43;12.93;;;10.60;99.90;;;;;;4976061;28;20142;-81
2024/03/30 07:55:34;;;;;;;12.45;11.15;;;10.50;99.90;;;;;;4994250;28;20128;-81
2024/03/30 07:58:00;;;;;;;12.95;11.68;;;10.50;99.90;;;;;;4986825;28;20087;-81
2024/03/30 08:00:26;;;;;;;12.93;11.63;;;10.60;99.90;;;;;;4975340;28;20705;-81
2024/03/30 08:02:59;;;;;;;12.85;11.55;;;10.60;99.90;;;;;;4974486;28;20052;-80
2024/03/30 08:05:26;;;;;;;11.60;10.48;;;10.60;99.90;;;;;;4961887;28;20034;-80
2024/03/30 08:07:52;;;;;;;10.85;9.52;;;10.70;99.90;;;;;;4967994;28;20083;-81
2024/03/30 08:10:18;;;;;;;10.65;9.65;;;10.80;99.90;;;;;;4978823;28;20046;-81
2024/03/30 08:12:43;;;;;;;10.60;9.57;;;10.80;99.90;;;;;;5009522;28;20048;-79
2024/03/30 08:15:09;;;;;;;10.73;9.73;;;10.90;99.90;;;;;;5004235;28;20034;-81
2024/03/30 08:17:35;;;;;;;10.85;9.82;;;10.90;99.90;;;;;;4961343;28;20039;-81
2024/03/30 08:20:01;;;;;;;11.00;9.90;;;11.00;99.90;;;;;;4976023;28;20393;-81
2024/03/30 08:22:27;;;;;;;11.57;10.32;;;11.00;99.90;;;;;;4980242;28;20058;-80
2024/03/30 08:24:52;;;;;;;12.27;11.07;;;11.00;99.90;;;;;;4963013;28;20502;-81
2024/03/30 08:27:18;;;;;;;12.20;10.88;;;11.10;99.90;;;;;;4963718;28;20069;-81
2024/03/30 08:29:44;;;;;;;11.52;10.32;;;11.10;99.90;;;;;;4961753;28;20108;-81
2024/03/30 08:32:10;;;;;;;11.40;10.30;;;11.20;99.90;;;;;;4966914;28;20034;-80
2024/03/30 08:34:36;;;;;;;11.80;10.13;;;11.20;99.90;;;;;;4979384;28;20042;-81
2024/03/30 08:37:02;;;;;;;11.25;10.15;;;11.30;99.90;;;;;;4974595;28;20034;-81
2024/03/30 08:39:28;;;;;;;12.77;10.55;;;11.30;99.90;;;;;;4995596;28;20053;-79
2024/03/30 08:41:54;;;;;;;11.18;9.80;;;11.40;99.90;;;;;;4990852;28;20042;-80
2024/03/30 08:44:19;;;;;;;10.98;9.25;;;11.50;99.90;;;;;;4984731;28;20061;-80
2024/03/30 08:46:45;;;;;;;11.02;9.88;;;11.60;99.90;;;;;;5017223;28;20502;-82
2024/03/30 08:49:12;;;;;;;11.05;9.95;;;11.60;99.90;;;;;;4985505;28;20057;-81
2024/03/30 08:51:38;;;;;;;10.90;9.80;;;11.80;99.90;;;;;;4982622;28;20785;-80
2024/03/30 08:54:10;;;;;;;9.93;8.88;;;11.80;99.90;;;;;;4968091;28;20049;-81
2024/03/30 08:56:36;;;;;;;10.18;8.60;;;12.00;99.90;;;;;;4973488;28;20495;-79
2024/03/30 08:59:02;;;;;;;10.50;8.98;;;12.10;99.90;;;;;;4964851;28;20046;-81
2024/03/30 09:01:32;;;;;;;8.02;7.10;;;12.20;99.90;;;;;;5006302;28;20038;-80
2024/03/30 09:03:58;;;;;;;;;;;12.20;99.90;;;;;;5014271;28;20042;-78
2024/03/30 09:06:23;;;;;;;7.15;6.45;;;12.30;99.90;;;;;;4983914;28;19944;-81
2024/03/30 09:08:49;;;;;;;9.70;6.95;;;12.40;99.90;;;;;;4996171;28;20057;-81
2024/03/30 09:11:15;;;;;;;6.03;5.38;;;12.60;99.90;;;;;;4984187;28;20556;-82
2024/03/30 09:13:41;;;;;;;6.47;5.85;;;12.70;99.90;;;;;;4999748;28;20038;-81
2024/03/30 09:16:07;;;;;;;5.63;5.03;;;12.90;99.90;;;;;;4970874;28;20050;-82
2024/03/30 09:18:33;;;;;;;5.47;4.90;;;13.00;99.90;;;;;;4978742;28;20057;-80
2024/03/30 09:20:59;;;;;;;6.10;5.47;;;13.10;99.90;;;;;;4975442;28;20041;-81
2024/03/30 09:23:27;;;;;;;6.18;4.20;;;13.20;99.90;;;;;;5012287;28;20422;-78
2024/03/30 09:25:53;;;;;;;4.80;4.00;;;13.20;99.90;;;;;;5001788;28;21213;-79
2024/03/30 09:28:19;;;;;;;5.57;3.63;;;13.20;99.90;;;;;;5016096;28;20519;-80
2024/03/30 09:30:45;;;;;;;4.70;3.85;;;13.30;99.90;;;;;;4960720;28;20050;-79
2024/03/30 09:33:10;;;;;;;5.80;4.03;;;13.30;99.90;;;;;;4993330;28;20046;-79
2024/03/30 09:35:40;;;;;;;4.63;3.13;;;13.40;99.90;;;;;;4992384;28;20049;-78
2024/03/30 09:38:05;;;;;;;3.43;2.63;;;13.60;99.90;;;;;;4973963;28;20095;-80
2024/03/30 09:40:35;;;;;;;3.97;3.15;;;13.70;99.90;;;;;;4989245;28;20046;-81
2024/03/30 09:43:01;;;;;;;5.20;3.47;;;13.70;99.90;;;;;;5014453;28;20038;-77
2024/03/30 09:45:28;;;;;;;3.95;2.75;;;13.90;99.90;;;;;;4967926;28;20053;-79
2024/03/30 09:48:02;;;;;;;3.75;3.08;;;14.10;99.90;;;;;;4970463;28;20086;-78
2024/03/30 09:50:28;;;;;;;3.90;3.30;;;14.20;99.90;;;;;;5005984;28;20041;-78
2024/03/30 09:52:55;;;;;;;4.30;2.72;;;14.30;99.90;;;;;;4981400;28;20085;-81
2024/03/30 09:55:22;;;;;;;3.90;3.20;;;14.40;99.90;;;;;;4973774;28;20065;-80
2024/03/30 09:57:49;;;;;;;6.18;3.15;;;14.40;99.90;;;;;;4972738;28;20038;-80
2024/03/30 10:00:16;;;;;;;6.53;3.63;;;14.60;99.90;;;;;;4970854;28;20193;-79
2024/03/30 10:02:43;;;;;;;5.68;3.33;;;14.70;99.90;;;;;;4974675;28;20042;-78
2024/03/30 10:05:12;;;;;;;6.68;3.40;;;14.70;99.90;;;;;;4969109;28;20703;-79
2024/03/30 10:07:47;;;;;;;5.50;3.40;;;14.80;99.90;;;;;;4983667;28;20693;-79
2024/03/30 10:10:15;;;;;;;5.10;3.50;;;14.90;99.90;;;;;;4978944;28;20062;-79
2024/03/30 10:13:12;;;;;;;4.70;3.50;;;15.00;99.90;;;;;;4987155;28;20050;-79
2024/03/30 10:15:45;;;;;;;6.05;3.75;;;14.90;99.90;;;;;;4984347;28;20112;-79
2024/03/30 10:18:16;;;;;;;6.78;3.85;;;14.80;99.90;;;;;;4988849;28;20406;-81
2024/03/30 10:20:42;;;;;;;5.10;3.30;;;14.70;99.90;;;;;;4970991;28;20112;-81
2024/03/30 10:23:08;;;;;;;6.20;3.92;;;14.60;99.90;;;;;;4969819;28;20506;-80
2024/03/30 10:25:37;;;;;;;10.73;3.78;;;14.70;99.90;;;;;;4970972;28;20081;-80
2024/03/30 10:28:05;;;;;;;12.18;3.38;;;14.70;99.90;;;;;;4986661;28;20546;-81
2024/03/30 10:30:31;;;;;;;8.38;3.67;;;14.70;99.90;;;;;;4965056;28;20038;-81
2024/03/30 10:33:04;;;;;;;9.13;4.10;;;14.60;99.90;;;;;;4986553;28;20041;-81
2024/03/30 10:35:30;;;;;;;10.55;3.67;;;14.60;99.90;;;;;;4985996;28;20124;-81
2024/03/30 10:37:57;;;;;;;10.45;3.67;;;14.60;99.90;;;;;;4986540;28;20048;-81
2024/03/30 10:40:25;;;;;;;6.32;3.50;;;14.60;99.90;;;;;;4973591;28;20533;-80
2024/03/30 10:42:55;;;;;;;12.38;3.70;;;14.50;99.90;;;;;;4983730;28;20463;-80
2024/03/30 10:45:20;;;;;;;9.43;3.97;;;14.50;99.90;;;;;;4973163;28;20049;-80
2024/03/30 10:47:46;;;;;;;13.30;4.40;;;14.40;99.90;;;;;;4969360;28;20030;-80
2024/03/30 10:50:13;;;;;;;13.80;4.50;;;14.40;99.90;;;;;;4972453;28;20042;-81
2024/03/30 10:52:39;;;;;;;9.63;3.40;;;14.50;99.90;;;;;;4971075;28;20048;-81
2024/03/30 10:55:05;;;;;;;13.23;4.38;;;14.50;99.90;;;;;;4968388;28;20080;-81
2024/03/30 10:57:31;;;;;;;15.27;4.07;;;14.60;99.90;;;;;;4972539;28;20124;-81
2024/03/30 11:00:02;;;;;;;19.60;4.30;;;14.60;99.90;;;;;;4982800;28;20129;-81
2024/03/30 11:02:29;;;;;;;15.25;4.35;;;14.70;99.90;;;;;;4984711;28;20072;-81
2024/03/30 11:04:57;;;;;;;15.05;4.38;;;14.80;99.90;;;;;;4983337;28;20450;-81
2024/03/30 11:07:24;;;;;;;14.93;3.90;;;14.90;99.90;;;;;;4982960;28;20092;-82
2024/03/30 11:09:51;;;;;;;12.40;4.07;;;15.00;99.90;;;;;;4985286;28;20694;-82
2024/03/30 11:12:17;;;;;;;12.68;4.03;;;15.10;99.90;;;;;;4971187;28;20042;-81
2024/03/30 11:14:43;;;;;;;12.43;4.35;;;15.20;99.90;;;;;;4988893;28;20042;-80
2024/03/30 11:17:21;;;;;;;12.80;4.45;;;15.40;99.90;;;;;;4971217;28;20121;-81
2024/03/30 11:20:12;;;;;;;13.30;4.03;;;15.50;99.90;;;;;;4969613;28;20371;-81
2024/03/30 11:22:39;;;;;;;16.85;4.88;;;15.60;99.90;;;;;;5001859;28;20430;-81
2024/03/30 11:25:09;;;;;;;22.88;4.60;;;15.80;99.90;;;;;;4983089;28;20053;-80
2024/03/30 11:27:38;;;;;;;20.27;4.03;;;15.90;99.90;;;;;;4971558;28;20053;-81
2024/03/30 11:30:25;;;;;;;16.85;4.30;;;16.00;99.90;;;;;;4970355;28;20509;-81
2024/03/30 11:33:00;;;;;;;19.85;4.50;;;16.00;99.90;;;;;;4984335;28;20203;-81
2024/03/30 11:35:33;;;;;;;19.35;4.53;;;16.00;99.90;;;;;;4966851;28;20229;-81
2024/03/30 11:38:04;;;;;;;26.67;5.10;;;15.90;99.90;;;;;;5000853;28;20050;-80
2024/03/30 11:40:54;;;;;;;26.95;4.60;;;15.90;99.90;;;;;;4998342;28;20085;-82
2024/03/30 11:43:31;;;;;;;20.50;4.57;;;15.90;99.90;;;;;;5002534;28;20077;-81
2024/03/30 11:45:58;;;;;;;19.92;3.88;;;15.90;99.90;;;;;;5018254;28;20048;-81
2024/03/30 11:48:25;;;;;;;24.45;5.05;;;15.90;99.90;;;;;;4971984;28;20108;-81
2024/03/30 11:50:51;;;;;;;23.08;5.15;;;15.80;99.90;;;;;;4971080;28;20046;-81
2024/03/30 11:53:18;;;;;;;21.85;4.18;;;15.80;99.90;;;;;;4988419;28;20052;-81
2024/03/30 11:55:48;;;;;;;17.83;4.07;;;15.80;99.90;;;;;;5001831;28;20105;-81
2024/03/30 11:58:24;;;;;;;20.80;4.30;;;15.80;99.90;;;;;;4973481;28;20499;-81
2024/03/30 12:00:52;;;;;;;21.65;4.68;;;15.70;99.90;;;;;;4971297;28;20065;-81
2024/03/30 12:03:18;;;;;;;18.50;4.03;;;15.70;99.90;;;;;;4962103;28;20414;-81
2024/03/30 12:05:48;;;;;;;17.17;4.13;;;15.70;99.90;;;;;;4966372;28;20252;-81
2024/03/30 12:08:15;;;;;;;12.77;4.32;;;15.70;99.90;;;;;;4966229;28;20053;-82
2024/03/30 12:10:55;;;;;;;15.13;3.78;;;15.80;99.90;;;;;;4988380;28;20049;-81
2024/03/30 12:13:25;;;;;;;21.65;4.93;;;15.80;99.90;;;;;;4968830;28;20054;-82
2024/03/30 12:15:51;;;;;;;;;;;15.70;99.90;;;;;;4972253;28;20038;-82
2024/03/30 12:18:18;;;;;;;15.55;3.97;;;15.80;99.90;;;;;;4968987;28;19929;-81
2024/03/30 12:20:45;;;;;;;19.35;3.83;;;15.70;99.90;;;;;;4970245;28;20049;-80
2024/03/30 12:23:14;;;;;;;12.02;3.88;;;15.80;99.90;;;;;;4968821;28;20103;-81
2024/03/30 12:25:44;;;;;;;14.75;3.70;;;15.80;99.90;;;;;;4971138;28;20062;-81
2024/03/30 12:28:10;;;;;;;;;;;15.80;99.90;;;;;;4985369;28;20054;-82
2024/03/30 12:30:43;;;;;;;17.52;3.45;;;15.80;99.90;;;;;;4969059;28;19936;-81
2024/03/30 12:33:08;;;;;;;16.35;4.40;;;15.80;99.90;;;;;;4971504;28;20064;-82
2024/03/30 12:35:34;;;;;;;14.52;4.30;;;15.70;99.90;;;;;;4987404;28;20042;-82
2024/03/30 12:38:01;;;;;;;14.32;3.83;;;15.80;99.90;;;;;;4970308;28;20537;-81
2024/03/30 12:40:34;;;;;;;13.18;3.28;;;15.70;99.90;;;;;;4971812;28;20904;-81
2024/03/30 12:43:01;;;;;;;14.43;3.95;;;15.70;99.90;;;;;;4987845;28;20133;-82
2024/03/30 12:45:28;;;;;;;15.15;3.72;;;15.60;99.90;;;;;;4984025;28;20061;-81
2024/03/30 12:47:54;;;;;;;16.45;3.30;;;15.60;99.90;;;;;;4998983;28;20038;-81